createdAt,value
2023-02-02T00:00:25.814Z,72.80
2023-02-02T00:01:27.794Z,72.25
2023-02-02T00:02:29.717Z,71.97
2023-02-02T00:03:31.974Z,71.13
2023-02-02T00:04:35.470Z,71.08
2023-02-02T00:05:37.907Z,70.17
2023-02-02T00:06:39.761Z,71.57
2023-02-02T00:07:41.749Z,72.22
2023-02-02T00:08:43.708Z,71.48
2023-02-02T00:09:45.544Z,70.55
2023-02-02T00:10:47.839Z,70.65
2023-02-02T00:11:51.343Z,71.50
2023-02-02T00:12:54.312Z,70.64
2023-02-02T00:13:56.226Z,68.18
2023-02-02T00:14:58.358Z,67.78
2023-02-02T00:16:00.423Z,67.53
2023-02-02T00:17:02.290Z,69.31
2023-02-02T00:18:04.655Z,68.91
2023-02-02T00:19:11.336Z,69.26
2023-02-02T00:20:13.161Z,68.79
2023-02-02T00:21:15.006Z,68.09
2023-02-02T00:22:17.356Z,69.70
2023-02-02T00:23:19.415Z,69.84
2023-02-02T00:24:22.020Z,70.11
2023-02-02T00:25:24.075Z,69.66
2023-02-02T00:26:27.280Z,67.62
2023-02-02T00:27:29.192Z,68.43
2023-02-02T00:28:31.100Z,69.46
2023-02-02T00:29:32.978Z,69.70
2023-02-02T00:30:34.791Z,68.89
2023-02-02T00:31:36.887Z,69.73
2023-02-02T00:32:38.714Z,69.82
2023-02-02T00:33:44.792Z,68.16
2023-02-02T00:34:46.693Z,68.98
2023-02-02T00:35:48.591Z,69.02
2023-02-02T00:36:51.107Z,68.45
2023-02-02T00:37:52.988Z,69.01
2023-02-02T00:38:54.934Z,69.05
2023-02-02T00:39:56.716Z,68.09
2023-02-02T00:40:58.565Z,68.86
2023-02-02T00:42:00.418Z,68.58
2023-02-02T00:43:02.302Z,69.07
2023-02-02T00:44:22.977Z,68.81
2023-02-02T00:45:26.440Z,67.51
2023-02-02T00:46:28.424Z,67.00
2023-02-02T00:47:30.248Z,66.70
2023-02-02T00:48:32.037Z,67.61
2023-02-02T00:49:33.916Z,68.22
2023-02-02T00:50:35.741Z,66.91
2023-02-02T00:51:37.924Z,66.86
2023-02-02T00:52:39.707Z,67.03
2023-02-02T00:53:41.541Z,67.18
2023-02-02T00:54:43.476Z,67.01
2023-02-02T00:55:45.270Z,67.93
2023-02-02T00:56:47.066Z,67.53
2023-02-02T00:57:48.960Z,68.00
2023-02-02T00:58:50.726Z,67.91
2023-02-02T00:59:52.650Z,68.41
2023-02-02T01:00:54.610Z,68.55
2023-02-02T01:01:56.557Z,69.88
2023-02-02T01:03:04.553Z,70.21
2023-02-02T01:04:06.583Z,70.12
2023-02-02T01:05:08.647Z,69.62
2023-02-02T01:06:10.829Z,69.96
2023-02-02T01:07:12.736Z,70.37
2023-02-02T01:08:14.560Z,71.04
2023-02-02T01:09:16.730Z,71.05
2023-02-02T01:10:19.120Z,71.05
2023-02-02T01:11:21.014Z,70.34
2023-02-02T01:12:22.885Z,69.26
2023-02-02T01:13:24.801Z,70.57
2023-02-02T01:14:26.812Z,70.49
2023-02-02T01:15:30.717Z,69.70
2023-02-02T01:16:33.050Z,70.83
2023-02-02T01:17:34.936Z,70.47
2023-02-02T01:18:37.076Z,70.21
2023-02-02T01:19:38.863Z,70.29
2023-02-02T01:20:40.701Z,70.38
2023-02-02T01:21:43.107Z,71.21
2023-02-02T01:22:45.316Z,71.21
2023-02-02T01:23:47.224Z,71.12
2023-02-02T01:24:49.628Z,71.74
2023-02-02T01:25:57.956Z,69.94
2023-02-02T01:26:59.965Z,70.76
2023-02-02T01:28:01.793Z,70.03
2023-02-02T01:29:03.667Z,70.58
2023-02-02T01:30:05.804Z,70.27
2023-02-02T01:31:09.186Z,70.56
2023-02-02T01:32:11.298Z,70.01
2023-02-02T01:33:13.117Z,70.00
2023-02-02T01:34:15.001Z,70.30
2023-02-02T01:35:16.989Z,70.62
2023-02-02T01:36:20.380Z,70.24
2023-02-02T01:37:22.635Z,71.45
2023-02-02T01:38:24.743Z,70.09
2023-02-02T01:39:26.606Z,70.64
2023-02-02T01:40:28.415Z,71.19
2023-02-02T01:41:30.363Z,70.45
2023-02-02T01:42:32.211Z,70.54
2023-02-02T01:43:43.415Z,71.18
2023-02-02T01:45:04.004Z,71.64
2023-02-02T01:46:06.082Z,70.34
2023-02-02T01:47:08.020Z,70.80
2023-02-02T01:48:09.876Z,71.30
2023-02-02T01:49:13.523Z,71.62
2023-02-02T01:50:17.241Z,71.41
2023-02-02T01:51:21.340Z,71.09
2023-02-02T01:52:24.747Z,71.58
2023-02-02T01:53:26.831Z,71.65
2023-02-02T01:54:31.583Z,69.90
2023-02-02T01:55:35.567Z,70.86
2023-02-02T01:56:42.722Z,71.02
2023-02-02T01:57:53.210Z,71.46
2023-02-02T01:58:55.222Z,71.73
2023-02-02T01:59:59.859Z,70.33
2023-02-02T02:01:01.821Z,71.02
2023-02-02T02:02:03.778Z,70.45
2023-02-02T02:03:08.502Z,69.93
2023-02-02T02:04:10.699Z,70.50
2023-02-02T02:05:15.743Z,70.35
2023-02-02T02:06:19.099Z,69.86
2023-02-02T02:07:21.500Z,69.87
2023-02-02T02:08:31.155Z,69.90
2023-02-02T02:09:34.094Z,69.53
2023-02-02T02:10:36.045Z,69.55
2023-02-02T02:11:37.954Z,69.48
2023-02-02T02:12:39.770Z,67.69
2023-02-02T02:14:00.361Z,67.65
2023-02-02T02:15:21.001Z,68.13
2023-02-02T02:16:32.071Z,67.54
2023-02-02T02:17:33.899Z,69.46
2023-02-02T02:18:55.636Z,69.57
2023-02-02T02:20:31.243Z,69.44
2023-02-02T02:21:56.501Z,70.76
2023-02-02T02:23:16.708Z,71.35
2023-02-02T02:24:51.403Z,70.44
2023-02-02T02:26:32.980Z,69.09
2023-02-02T02:27:59.180Z,69.44
2023-02-02T02:29:02.389Z,69.09
2023-02-02T02:30:07.374Z,70.13
2023-02-02T02:31:20.385Z,70.84
2023-02-02T02:32:34.190Z,70.62
2023-02-02T02:33:45.000Z,70.49
2023-02-02T02:34:51.656Z,70.06
2023-02-02T02:36:02.453Z,70.05
2023-02-02T02:37:07.552Z,69.14
2023-02-02T02:38:12.712Z,68.72
2023-02-02T02:39:18.985Z,69.51
2023-02-02T02:40:31.476Z,69.94
2023-02-02T02:41:35.205Z,70.21
2023-02-02T02:42:40.002Z,70.62
2023-02-02T02:43:49.762Z,70.42
2023-02-02T02:44:53.620Z,71.42
2023-02-02T02:45:55.749Z,70.63
2023-02-02T02:46:57.628Z,72.61
2023-02-02T02:48:00.076Z,72.31
2023-02-02T02:49:01.980Z,71.97
2023-02-02T02:50:04.006Z,72.33
2023-02-02T02:51:10.112Z,72.80
2023-02-02T02:52:12.019Z,72.99
2023-02-02T02:53:19.058Z,74.03
2023-02-02T02:54:26.903Z,73.96
2023-02-02T02:55:32.108Z,73.91
2023-02-02T02:56:38.438Z,73.66
2023-02-02T02:57:55.339Z,74.14
2023-02-02T02:59:07.136Z,74.13
2023-02-02T03:00:15.789Z,74.20
2023-02-02T03:01:21.528Z,74.68
2023-02-02T03:02:32.347Z,74.20
2023-02-02T03:03:37.610Z,74.16
2023-02-02T03:04:54.793Z,74.61
2023-02-02T03:06:01.960Z,75.10
2023-02-02T03:07:07.843Z,75.33
2023-02-02T03:08:09.614Z,75.71
2023-02-02T03:09:13.852Z,75.71
2023-02-02T03:10:18.651Z,76.04
2023-02-02T03:11:21.121Z,76.63
2023-02-02T03:12:23.153Z,76.10
2023-02-02T03:13:26.310Z,76.08
2023-02-02T03:14:28.130Z,76.25
2023-02-02T03:15:29.990Z,76.39
2023-02-02T03:16:31.840Z,75.62
2023-02-02T03:17:33.664Z,74.82
2023-02-02T03:18:35.806Z,74.40
2023-02-02T03:19:37.739Z,74.31
2023-02-02T03:20:39.726Z,74.67
2023-02-02T03:21:41.582Z,75.25
2023-02-02T03:22:43.473Z,75.37
2023-02-02T03:23:45.224Z,75.17
2023-02-02T03:24:47.033Z,74.94
2023-02-02T03:25:48.875Z,75.12
2023-02-02T03:26:50.804Z,75.23
2023-02-02T03:27:53.472Z,75.08
2023-02-02T03:28:56.910Z,75.62
2023-02-02T03:29:58.906Z,76.48
2023-02-02T03:31:02.579Z,76.60
2023-02-02T03:32:04.784Z,76.83
2023-02-02T03:33:07.510Z,77.46
2023-02-02T03:34:09.407Z,77.40
2023-02-02T03:35:11.258Z,77.92
2023-02-02T03:36:13.155Z,79.88
2023-02-02T03:37:14.965Z,80.16
2023-02-02T03:38:16.921Z,80.63
2023-02-02T03:39:18.976Z,81.28
2023-02-02T03:40:20.858Z,82.53
2023-02-02T03:41:22.703Z,83.01
2023-02-02T03:42:24.516Z,83.77
2023-02-02T03:43:26.534Z,84.38
2023-02-02T03:44:28.451Z,84.99
2023-02-02T03:45:30.666Z,84.87
2023-02-02T03:46:32.619Z,84.93
2023-02-02T03:47:34.483Z,84.94
2023-02-02T03:48:37.373Z,85.18
2023-02-02T03:49:39.212Z,85.27
2023-02-02T03:50:41.092Z,85.36
2023-02-02T03:51:44.503Z,85.95
2023-02-02T03:52:46.385Z,85.51
2023-02-02T03:53:48.258Z,86.03
2023-02-02T03:54:50.150Z,85.50
2023-02-02T03:55:52.021Z,85.42
2023-02-02T03:56:53.844Z,85.32
2023-02-02T03:57:55.732Z,85.90
2023-02-02T03:58:57.706Z,85.74
2023-02-02T03:59:59.527Z,85.75
2023-02-02T04:01:05.723Z,85.58
2023-02-02T04:02:07.620Z,85.51
2023-02-02T04:03:09.459Z,85.22
2023-02-02T04:04:11.405Z,85.78
2023-02-02T04:05:13.248Z,85.42
2023-02-02T04:06:15.225Z,85.44
2023-02-02T04:07:17.012Z,85.32
2023-02-02T04:08:18.888Z,85.82
2023-02-02T04:09:20.952Z,85.36
2023-02-02T04:10:23.258Z,85.68
2023-02-02T04:11:25.073Z,85.14
2023-02-02T04:12:26.981Z,84.97
2023-02-02T04:13:28.791Z,85.70
2023-02-02T04:14:30.726Z,86.10
2023-02-02T04:15:32.564Z,86.04
2023-02-02T04:16:37.893Z,86.41
2023-02-02T04:17:39.880Z,86.48
2023-02-02T04:18:41.792Z,85.90
2023-02-02T04:19:43.709Z,85.79
2023-02-02T04:20:45.538Z,85.98
2023-02-02T04:21:47.411Z,86.35
2023-02-02T04:22:49.303Z,86.05
2023-02-02T04:23:51.098Z,85.84
2023-02-02T04:24:53.100Z,85.70
2023-02-02T04:25:55.136Z,85.80
2023-02-02T04:26:56.974Z,86.09
2023-02-02T04:27:58.827Z,86.54
2023-02-02T04:29:00.634Z,86.78
2023-02-02T04:30:02.546Z,86.90
2023-02-02T04:31:04.541Z,86.40
2023-02-02T04:32:06.388Z,86.45
2023-02-02T04:33:08.236Z,86.57
2023-02-02T04:34:10.160Z,86.44
2023-02-02T04:35:12.054Z,86.21
2023-02-02T04:36:13.888Z,86.79
2023-02-02T04:37:15.736Z,86.57
2023-02-02T04:38:17.577Z,86.57
2023-02-02T04:39:19.395Z,86.88
2023-02-02T04:40:21.321Z,86.83
2023-02-02T04:41:23.254Z,86.86
2023-02-02T04:42:25.160Z,86.57
2023-02-02T04:43:27.090Z,86.76
2023-02-02T04:44:28.967Z,86.22
2023-02-02T04:45:30.984Z,86.14
2023-02-02T04:46:32.820Z,86.24
2023-02-02T04:47:34.576Z,87.04
2023-02-02T04:48:37.043Z,87.04
2023-02-02T04:49:38.895Z,86.89
2023-02-02T04:50:40.806Z,87.86
2023-02-02T04:51:42.728Z,87.99
2023-02-02T04:52:47.394Z,87.75
2023-02-02T04:53:49.276Z,88.01
2023-02-02T04:54:51.176Z,87.59
2023-02-02T04:55:53.147Z,87.45
2023-02-02T04:56:55.003Z,88.02
2023-02-02T04:57:56.841Z,88.05
2023-02-02T04:58:59.128Z,88.04
2023-02-02T05:00:00.956Z,87.57
2023-02-02T05:01:08.291Z,87.45
2023-02-02T05:02:10.533Z,86.95
2023-02-02T05:03:12.707Z,87.71
2023-02-02T05:04:14.557Z,87.20
2023-02-02T05:05:16.451Z,87.66
2023-02-02T05:06:19.808Z,87.15
2023-02-02T05:07:21.796Z,87.24
2023-02-02T05:08:23.732Z,88.30
2023-02-02T05:09:25.807Z,88.12
2023-02-02T05:10:27.772Z,88.56
2023-02-02T05:11:31.176Z,88.98
2023-02-02T05:12:33.114Z,88.91
2023-02-02T05:13:34.976Z,88.33
2023-02-02T05:14:36.907Z,88.77
2023-02-02T05:15:38.731Z,88.11
2023-02-02T05:16:40.820Z,88.34
2023-02-02T05:17:42.734Z,88.87
2023-02-02T05:18:49.248Z,88.65
2023-02-02T05:19:51.144Z,89.32
2023-02-02T05:20:53.245Z,89.59
2023-02-02T05:21:56.227Z,89.91
2023-02-02T05:22:58.090Z,89.02
2023-02-02T05:24:01.466Z,89.41
2023-02-02T05:25:03.458Z,89.90
2023-02-02T05:26:05.304Z,90.11
2023-02-02T05:27:07.147Z,89.98
2023-02-02T05:28:09.999Z,90.79
2023-02-02T05:29:11.891Z,89.96
2023-02-02T05:30:14.357Z,90.09
2023-02-02T05:31:16.276Z,90.18
2023-02-02T05:32:18.267Z,90.04
2023-02-02T05:33:20.256Z,90.14
2023-02-02T05:34:22.799Z,90.34
2023-02-02T05:35:25.097Z,91.40
2023-02-02T05:36:27.330Z,90.48
2023-02-02T05:37:29.155Z,90.84
2023-02-02T05:38:31.106Z,90.67
2023-02-02T05:39:32.954Z,90.79
2023-02-02T05:40:34.823Z,91.03
2023-02-02T05:41:36.781Z,90.72
2023-02-02T05:42:38.590Z,90.66
2023-02-02T05:43:40.471Z,91.19
2023-02-02T05:44:42.410Z,91.29
2023-02-02T05:45:44.309Z,91.43
2023-02-02T05:46:46.341Z,91.31
2023-02-02T05:47:48.188Z,91.45
2023-02-02T05:48:50.093Z,91.53
2023-02-02T05:49:51.956Z,91.36
2023-02-02T05:51:03.008Z,91.57
2023-02-02T05:52:05.490Z,91.23
2023-02-02T05:53:07.341Z,91.50
2023-02-02T05:54:09.308Z,90.83
2023-02-02T05:55:11.210Z,91.03
2023-02-02T05:56:13.501Z,91.38
2023-02-02T05:57:15.371Z,91.18
2023-02-02T05:58:17.188Z,90.98
2023-02-02T05:59:19.733Z,91.25
2023-02-02T06:00:21.812Z,90.96
2023-02-02T06:01:23.582Z,91.23
2023-02-02T06:02:25.540Z,91.08
2023-02-02T06:03:27.550Z,91.40
2023-02-02T06:04:29.596Z,91.38
2023-02-02T06:05:31.456Z,91.17
2023-02-02T06:06:35.798Z,92.40
2023-02-02T06:07:37.729Z,91.76
2023-02-02T06:08:39.619Z,91.55
2023-02-02T06:09:41.522Z,92.53
2023-02-02T06:10:43.579Z,91.71
2023-02-02T06:11:45.722Z,91.79
2023-02-02T06:12:47.640Z,92.59
2023-02-02T06:13:49.469Z,91.83
2023-02-02T06:14:51.400Z,91.82
2023-02-02T06:15:53.315Z,91.48
2023-02-02T06:16:55.214Z,92.17
2023-02-02T06:17:58.507Z,92.14
2023-02-02T06:19:00.378Z,91.62
2023-02-02T06:20:02.272Z,92.19
2023-02-02T06:21:06.362Z,92.13
2023-02-02T06:22:08.258Z,92.02
2023-02-02T06:23:12.182Z,91.90
2023-02-02T06:24:14.017Z,92.54
2023-02-02T06:25:16.004Z,91.77
2023-02-02T06:26:18.383Z,91.68
2023-02-02T06:27:21.094Z,91.63
2023-02-02T06:28:22.912Z,92.14
2023-02-02T06:29:24.782Z,91.74
2023-02-02T06:30:27.624Z,91.99
2023-02-02T06:31:29.524Z,92.49
2023-02-02T06:32:31.572Z,92.39
2023-02-02T06:33:33.433Z,92.26
2023-02-02T06:34:35.296Z,92.21
2023-02-02T06:35:37.153Z,91.42
2023-02-02T06:36:38.963Z,91.32
2023-02-02T06:37:42.534Z,91.26
2023-02-02T06:38:44.513Z,92.13
2023-02-02T06:39:46.378Z,91.74
2023-02-02T06:40:48.228Z,91.66
2023-02-02T06:41:52.362Z,91.61
2023-02-02T06:42:58.188Z,91.30
2023-02-02T06:44:00.037Z,91.11
2023-02-02T06:45:02.629Z,91.34
2023-02-02T06:46:04.550Z,90.84
2023-02-02T06:47:06.389Z,91.09
2023-02-02T06:48:11.159Z,91.47
2023-02-02T06:49:13.202Z,91.66
2023-02-02T06:50:15.115Z,91.40
2023-02-02T06:51:16.999Z,90.59
2023-02-02T06:52:18.802Z,91.43
2023-02-02T06:53:23.551Z,91.57
2023-02-02T06:54:25.479Z,91.38
2023-02-02T06:55:27.484Z,90.93
2023-02-02T06:56:29.976Z,90.59
2023-02-02T06:57:31.865Z,91.40
2023-02-02T06:58:34.281Z,91.51
2023-02-02T06:59:36.208Z,90.62
2023-02-02T07:00:38.481Z,90.80
2023-02-02T07:01:40.422Z,90.64
2023-02-02T07:02:45.296Z,90.76
2023-02-02T07:03:51.466Z,91.06
2023-02-02T07:04:53.502Z,91.14
2023-02-02T07:05:55.285Z,90.30
2023-02-02T07:06:57.147Z,90.28
2023-02-02T07:07:58.933Z,90.98
2023-02-02T07:09:03.062Z,91.02
2023-02-02T07:10:05.468Z,90.21
2023-02-02T07:11:12.913Z,90.17
2023-02-02T07:12:19.736Z,89.76
2023-02-02T07:13:21.823Z,89.84
2023-02-02T07:14:23.598Z,90.55
2023-02-02T07:15:25.802Z,89.89
2023-02-02T07:16:27.816Z,89.87
2023-02-02T07:17:29.758Z,90.39
2023-02-02T07:18:32.056Z,90.25
2023-02-02T07:19:33.969Z,90.81
2023-02-02T07:20:35.817Z,90.02
2023-02-02T07:21:37.711Z,90.73
2023-02-02T07:22:40.119Z,90.25
2023-02-02T07:23:42.020Z,90.79
2023-02-02T07:24:43.904Z,91.36
2023-02-02T07:25:45.882Z,90.61
2023-02-02T07:26:47.724Z,90.52
2023-02-02T07:27:55.541Z,90.71
2023-02-02T07:28:57.439Z,91.23
2023-02-02T07:29:59.326Z,91.00
2023-02-02T07:31:01.535Z,90.99
2023-02-02T07:32:03.557Z,91.55
2023-02-02T07:33:05.496Z,91.63
2023-02-02T07:34:07.407Z,91.89
2023-02-02T07:35:09.390Z,91.32
2023-02-02T07:36:11.755Z,91.41
2023-02-02T07:37:13.626Z,91.46
2023-02-02T07:38:15.680Z,91.61
2023-02-02T07:39:17.524Z,91.70
2023-02-02T07:40:19.457Z,91.93
2023-02-02T07:41:21.349Z,91.47
2023-02-02T07:42:23.170Z,91.70
2023-02-02T07:43:25.147Z,91.15
2023-02-02T07:44:26.973Z,91.55
2023-02-02T07:45:29.141Z,91.56
2023-02-02T07:46:31.564Z,91.61
2023-02-02T07:47:33.422Z,91.97
2023-02-02T07:48:35.404Z,92.04
2023-02-02T07:49:37.208Z,91.26
2023-02-02T07:50:39.045Z,91.45
2023-02-02T07:51:46.359Z,92.03
2023-02-02T07:52:49.563Z,90.98
2023-02-02T07:53:52.511Z,91.12
2023-02-02T07:54:59.923Z,90.70
2023-02-02T07:56:13.007Z,90.96
2023-02-02T07:57:17.901Z,90.43
2023-02-02T07:58:19.765Z,90.30
2023-02-02T07:59:21.626Z,90.20
2023-02-02T08:00:23.923Z,90.26
2023-02-02T08:01:26.743Z,89.84
2023-02-02T08:02:28.872Z,90.17
2023-02-02T08:03:30.851Z,89.56
2023-02-02T08:04:34.733Z,90.00
2023-02-02T08:05:36.596Z,89.96
2023-02-02T08:06:39.400Z,89.53
2023-02-02T08:07:41.256Z,89.06
2023-02-02T08:08:43.219Z,89.78
2023-02-02T08:09:48.845Z,89.85
2023-02-02T08:10:51.707Z,89.49
2023-02-02T08:11:53.563Z,89.66
2023-02-02T08:12:55.530Z,90.04
2023-02-02T08:13:58.915Z,89.80
2023-02-02T08:15:00.986Z,89.03
2023-02-02T08:16:02.962Z,89.48
2023-02-02T08:17:04.917Z,89.97
2023-02-02T08:18:06.685Z,89.49
2023-02-02T08:19:09.959Z,89.08
2023-02-02T08:20:13.379Z,89.11
2023-02-02T08:21:16.308Z,89.87
2023-02-02T08:22:20.278Z,89.36
2023-02-02T08:23:23.932Z,89.85
2023-02-02T08:24:25.833Z,89.55
2023-02-02T08:25:27.846Z,89.78
2023-02-02T08:26:30.955Z,89.75
2023-02-02T08:27:32.808Z,90.19
2023-02-02T08:28:36.632Z,89.83
2023-02-02T08:29:39.353Z,90.88
2023-02-02T08:30:41.304Z,91.09
2023-02-02T08:31:44.596Z,90.30
2023-02-02T08:32:46.443Z,91.06
2023-02-02T08:33:48.324Z,91.15
2023-02-02T08:34:52.034Z,90.85
2023-02-02T08:35:53.949Z,90.20
2023-02-02T08:36:55.818Z,90.89
2023-02-02T08:37:57.770Z,90.58
2023-02-02T08:39:03.677Z,90.37
2023-02-02T08:40:05.845Z,90.13
2023-02-02T08:41:08.662Z,90.49
2023-02-02T08:42:10.537Z,90.70
2023-02-02T08:43:12.345Z,90.23
2023-02-02T08:44:18.534Z,89.98
2023-02-02T08:46:13.693Z,90.87
2023-02-02T08:46:43.621Z,90.18
2023-02-02T08:47:50.413Z,90.08
2023-02-02T08:48:57.914Z,90.26
2023-02-02T08:49:59.786Z,90.78
2023-02-02T08:51:01.998Z,90.21
2023-02-02T08:52:04.049Z,91.04
2023-02-02T08:53:05.883Z,90.76
2023-02-02T08:54:07.723Z,90.33
2023-02-02T08:55:09.892Z,90.57
2023-02-02T08:56:15.846Z,90.87
2023-02-02T08:57:17.813Z,90.27
2023-02-02T08:58:19.670Z,90.24
2023-02-02T08:59:21.468Z,90.64
2023-02-02T09:00:23.518Z,90.11
2023-02-02T09:01:29.885Z,90.06
2023-02-02T09:02:31.918Z,90.33
2023-02-02T09:03:34.017Z,90.19
2023-02-02T09:04:35.971Z,90.99
2023-02-02T09:05:38.936Z,90.87
2023-02-02T09:06:41.193Z,90.77
2023-02-02T09:07:43.196Z,90.02
2023-02-02T09:08:45.700Z,90.11
2023-02-02T09:09:47.561Z,90.35
2023-02-02T09:10:49.369Z,90.23
2023-02-02T09:11:51.231Z,90.05
2023-02-02T09:12:53.110Z,90.22
2023-02-02T09:13:56.272Z,90.11
2023-02-02T09:14:58.548Z,90.33
2023-02-02T09:16:01.412Z,90.24
2023-02-02T09:17:03.370Z,90.05
2023-02-02T09:18:05.324Z,90.40
2023-02-02T09:19:07.400Z,90.12
2023-02-02T09:20:10.006Z,90.97
2023-02-02T09:21:13.123Z,90.16
2023-02-02T09:22:15.039Z,90.68
2023-02-02T09:23:16.997Z,90.22
2023-02-02T09:24:18.911Z,90.27
2023-02-02T09:25:20.833Z,90.07
2023-02-02T09:26:24.428Z,90.15
2023-02-02T09:27:26.300Z,89.79
2023-02-02T09:28:28.286Z,90.72
2023-02-02T09:29:30.099Z,90.75
2023-02-02T09:30:31.956Z,90.25
2023-02-02T09:31:35.108Z,90.90
2023-02-02T09:32:37.059Z,91.00
2023-02-02T09:33:39.053Z,90.83
2023-02-02T09:34:41.107Z,91.01
2023-02-02T09:35:42.994Z,91.02
2023-02-02T09:36:44.986Z,91.70
2023-02-02T09:37:46.893Z,92.03
2023-02-02T09:38:49.557Z,92.30
2023-02-02T09:39:51.311Z,91.49
2023-02-02T09:40:53.211Z,91.64
2023-02-02T09:42:00.162Z,91.68
2023-02-02T09:43:01.954Z,91.70
2023-02-02T09:44:03.815Z,91.62
2023-02-02T09:45:15.426Z,91.88
2023-02-02T09:46:35.790Z,92.31
2023-02-02T09:47:58.838Z,91.68
2023-02-02T09:49:02.618Z,92.90
2023-02-02T09:50:12.027Z,92.40
2023-02-02T09:51:17.342Z,92.92
2023-02-02T09:52:23.702Z,92.71
2023-02-02T09:53:36.624Z,92.80
2023-02-02T09:54:45.343Z,93.55
2023-02-02T09:55:50.579Z,93.02
2023-02-02T09:56:56.187Z,93.75
2023-02-02T09:58:19.746Z,93.87
2023-02-02T09:59:27.973Z,93.15
2023-02-02T10:00:32.110Z,94.10
2023-02-02T10:01:39.418Z,93.92
2023-02-02T10:02:44.810Z,93.61
2023-02-02T10:03:55.462Z,93.76
2023-02-02T10:05:02.519Z,93.01
2023-02-02T10:06:24.594Z,93.97
2023-02-02T10:07:41.242Z,93.06
2023-02-02T10:08:45.366Z,93.08
2023-02-02T10:09:49.393Z,93.80
2023-02-02T10:10:52.127Z,93.20
2023-02-02T10:11:53.971Z,93.07
2023-02-02T10:13:04.324Z,93.50
2023-02-02T10:14:14.564Z,92.86
2023-02-02T10:15:18.056Z,93.62
2023-02-02T10:16:20.109Z,93.06
2023-02-02T10:17:22.047Z,92.61
2023-02-02T10:18:41.216Z,93.37
2023-02-02T10:19:48.661Z,93.30
2023-02-02T10:20:59.586Z,93.11
2023-02-02T10:22:15.452Z,93.59
2023-02-02T10:23:27.150Z,92.59
2023-02-02T10:24:30.073Z,93.54
2023-02-02T10:25:33.617Z,92.62
2023-02-02T10:26:40.115Z,92.33
2023-02-02T10:27:46.326Z,92.64
2023-02-02T10:29:00.433Z,93.14
2023-02-02T10:30:03.813Z,92.54
2023-02-02T10:31:10.077Z,92.39
2023-02-02T10:32:22.924Z,92.50
2023-02-02T10:33:30.570Z,92.59
2023-02-02T10:34:42.066Z,93.02
2023-02-02T10:35:54.406Z,92.25
2023-02-02T10:37:14.919Z,92.61
2023-02-02T10:38:22.376Z,92.27
2023-02-02T10:39:27.216Z,92.97
2023-02-02T10:40:37.483Z,92.59
2023-02-02T10:41:39.519Z,92.42
2023-02-02T10:42:41.341Z,92.56
2023-02-02T10:44:00.193Z,92.69
2023-02-02T10:45:04.672Z,92.32
2023-02-02T10:46:10.265Z,92.90
2023-02-02T10:47:16.958Z,92.74
2023-02-02T10:48:24.027Z,93.08
2023-02-02T10:49:38.908Z,92.32
2023-02-02T10:50:43.634Z,92.88
2023-02-02T10:51:55.619Z,92.99
2023-02-02T10:53:01.961Z,93.03
2023-02-02T10:54:08.747Z,92.58
2023-02-02T10:55:10.588Z,92.71
2023-02-02T10:56:15.086Z,92.54
2023-02-02T10:57:20.252Z,92.84
2023-02-02T10:58:51.505Z,92.75
2023-02-02T11:00:01.560Z,92.37
2023-02-02T11:01:05.629Z,93.20
2023-02-02T11:02:20.781Z,92.44
2023-02-02T11:03:27.854Z,92.85
2023-02-02T11:04:48.169Z,92.52
2023-02-02T11:06:08.333Z,92.46
2023-02-02T11:07:10.954Z,92.28
2023-02-02T11:08:14.289Z,92.61
2023-02-02T11:09:25.007Z,92.30
2023-02-02T11:10:27.207Z,92.10
2023-02-02T11:11:29.696Z,92.29
2023-02-02T11:12:34.497Z,92.25
2023-02-02T11:13:39.918Z,92.09
2023-02-02T11:14:54.750Z,92.13
2023-02-02T11:16:14.705Z,92.07
2023-02-02T11:17:24.256Z,92.73
2023-02-02T11:18:28.484Z,92.99
2023-02-02T11:19:31.143Z,91.89
2023-02-02T11:20:34.785Z,91.90
2023-02-02T11:21:38.312Z,91.96
2023-02-02T11:22:40.579Z,92.11
2023-02-02T11:23:51.438Z,91.97
2023-02-02T11:24:53.981Z,92.12
2023-02-02T11:26:00.393Z,92.42
2023-02-02T11:27:07.793Z,92.37
2023-02-02T11:28:13.969Z,91.90
2023-02-02T11:29:18.904Z,91.94
2023-02-02T11:30:37.449Z,92.06
2023-02-02T11:31:39.407Z,92.17
2023-02-02T11:32:42.132Z,92.09
2023-02-02T11:33:43.965Z,92.25
2023-02-02T11:34:46.020Z,92.68
2023-02-02T11:36:14.217Z,92.29
2023-02-02T11:37:20.948Z,92.06
2023-02-02T11:38:22.925Z,92.49
2023-02-02T11:39:25.311Z,92.35
2023-02-02T11:40:29.342Z,91.82
2023-02-02T11:41:32.149Z,91.82
2023-02-02T11:42:34.311Z,92.05
2023-02-02T11:43:51.327Z,91.75
2023-02-02T11:44:56.096Z,91.96
2023-02-02T11:46:04.548Z,92.26
2023-02-02T11:47:06.897Z,91.69
2023-02-02T11:48:14.506Z,92.01
2023-02-02T11:49:19.195Z,92.06
2023-02-02T11:50:25.237Z,92.41
2023-02-02T11:51:28.629Z,91.75
2023-02-02T11:52:32.826Z,91.75
2023-02-02T11:53:35.833Z,91.84
2023-02-02T11:54:38.493Z,92.14
2023-02-02T11:55:43.550Z,91.32
2023-02-02T11:56:50.194Z,92.12
2023-02-02T11:58:12.185Z,91.21
2023-02-02T11:59:37.121Z,91.22
2023-02-02T12:00:48.994Z,91.48
2023-02-02T12:01:50.822Z,91.09
2023-02-02T12:02:52.911Z,91.64
2023-02-02T12:03:56.698Z,91.45
2023-02-02T12:05:14.792Z,91.40
2023-02-02T12:06:21.485Z,91.44
2023-02-02T12:07:23.236Z,91.20
2023-02-02T12:08:25.880Z,91.60
2023-02-02T12:09:28.636Z,91.27
2023-02-02T12:10:50.710Z,91.82
2023-02-02T12:12:16.809Z,91.67
2023-02-02T12:13:27.608Z,91.21
2023-02-02T12:14:52.823Z,91.17
2023-02-02T12:15:54.676Z,91.11
2023-02-02T12:17:03.453Z,91.08
2023-02-02T12:18:05.268Z,91.06
2023-02-02T12:19:13.176Z,91.03
2023-02-02T12:20:24.446Z,91.25
2023-02-02T12:21:41.296Z,91.13
2023-02-02T12:23:01.857Z,91.93
2023-02-02T12:24:19.007Z,91.11
2023-02-02T12:25:39.611Z,91.31
2023-02-02T12:26:48.022Z,91.32
2023-02-02T12:28:06.529Z,91.33
2023-02-02T12:29:08.306Z,91.82
2023-02-02T12:30:10.330Z,91.93
2023-02-02T12:31:30.854Z,91.70
2023-02-02T12:32:51.496Z,91.71
2023-02-02T12:34:07.219Z,91.65
2023-02-02T12:35:30.283Z,91.65
2023-02-02T12:36:50.633Z,92.02
2023-02-02T12:38:18.958Z,91.50
2023-02-02T12:39:37.657Z,91.42
2023-02-02T12:40:53.060Z,91.52
2023-02-02T12:42:04.258Z,91.85
2023-02-02T12:43:18.246Z,91.94
2023-02-02T12:44:26.044Z,92.38
2023-02-02T12:45:36.728Z,91.89
2023-02-02T12:46:51.270Z,91.76
2023-02-02T12:48:05.451Z,92.41
2023-02-02T12:49:25.926Z,92.18
2023-02-02T12:50:30.953Z,91.47
2023-02-02T12:51:51.313Z,91.47
2023-02-02T12:52:56.277Z,91.68
2023-02-02T12:54:34.669Z,91.49
2023-02-02T12:55:46.493Z,91.57
2023-02-02T12:56:55.347Z,92.19
2023-02-02T12:58:05.706Z,91.99
2023-02-02T12:59:19.400Z,91.76
2023-02-02T13:00:38.455Z,91.28
2023-02-02T13:01:49.080Z,91.29
2023-02-02T13:03:09.647Z,91.26
2023-02-02T13:04:17.400Z,91.91
2023-02-02T13:08:19.392Z,91.53
2023-02-02T13:09:28.027Z,91.24
2023-02-02T13:10:36.946Z,91.19
2023-02-02T13:11:42.182Z,91.66
2023-02-02T13:12:51.704Z,91.41
2023-02-02T13:13:53.682Z,91.13
2023-02-02T13:14:58.272Z,91.88
2023-02-02T13:16:20.389Z,91.11
2023-02-02T13:17:25.879Z,92.05
2023-02-02T13:18:33.052Z,91.53
2023-02-02T13:19:37.438Z,91.29
2023-02-02T13:20:47.904Z,91.20
2023-02-02T13:21:50.890Z,92.10
2023-02-02T13:22:55.417Z,92.07
2023-02-02T13:24:00.527Z,92.31
2023-02-02T13:25:05.201Z,91.85
2023-02-02T13:26:17.627Z,91.58
2023-02-02T13:27:21.482Z,92.10
2023-02-02T13:28:46.593Z,91.95
2023-02-02T13:29:51.957Z,92.63
2023-02-02T13:30:57.005Z,92.46
2023-02-02T13:32:11.859Z,92.37
2023-02-02T13:33:21.401Z,93.25
2023-02-02T13:34:25.944Z,92.36
2023-02-02T13:35:47.944Z,92.22
2023-02-02T13:36:59.836Z,92.77
2023-02-02T13:38:15.045Z,92.14
2023-02-02T13:39:27.476Z,91.94
2023-02-02T13:40:37.212Z,92.48
2023-02-02T13:41:39.767Z,92.77
2023-02-02T13:42:44.693Z,92.49
2023-02-02T13:43:53.129Z,92.59
2023-02-02T13:44:59.221Z,91.72
2023-02-02T13:46:19.599Z,91.95
2023-02-02T13:47:36.146Z,91.81
2023-02-02T13:48:53.144Z,91.46
2023-02-02T13:49:59.300Z,91.40
2023-02-02T13:51:27.495Z,91.92
2023-02-02T13:52:32.074Z,91.71
2023-02-02T13:53:40.288Z,91.50
2023-02-02T13:55:00.675Z,92.39
2023-02-02T13:56:22.668Z,92.33
2023-02-02T13:57:36.782Z,92.51
2023-02-02T13:58:53.544Z,91.72
2023-02-02T14:00:01.125Z,92.42
2023-02-02T14:01:07.927Z,92.26
2023-02-02T14:02:25.626Z,92.50